Time;durP1;ratioP1;P1;durP2;ratioP2;P2;SDS_P1;SDS_P2;PMS_P1;PMS_P2;Temp;Humidity;BMP_temperature;BMP_pressure;BME280_temperature;BME280_humidity;BME280_pressure;Samples;Min_cycle;Max_cycle;Signal;HPM_P1;HPM_P2
2022/07/21 00:01:25;;;;;;;3.70;2.00;;;;;;;;;;5013375;28;20203;-71
2022/07/21 00:03:52;;;;;;;2.67;1.80;;;;;;;;;;5013519;28;20662;-72
2022/07/21 00:06:19;;;;;;;2.37;2.17;;;;;;;;;;5012438;28;20673;-72
2022/07/21 00:08:46;;;;;;;4.37;2.23;;;;;;;;;;5013454;28;20670;-71
2022/07/21 00:11:12;;;;;;;2.70;2.27;;;;;;;;;;5013329;28;20199;-72
2022/07/21 00:13:39;;;;;;;5.60;2.30;;;;;;;;;;5013282;28;20270;-73
2022/07/21 00:16:08;;;;;;;3.70;2.20;;;;;;;;;;5013497;28;20759;-71
2022/07/21 00:18:35;;;;;;;2.37;2.00;;;;;;;;;;5013382;28;20624;-71
2022/07/21 00:21:02;;;;;;;4.13;2.00;;;;;;;;;;5013600;28;20204;-72
2022/07/21 00:23:29;;;;;;;6.00;2.30;;;;;;;;;;5013219;28;20230;-72
2022/07/21 00:25:56;;;;;;;2.87;2.20;;;;;;;;;;5013409;28;20199;-72
2022/07/21 00:28:22;;;;;;;2.20;2.00;;;;;;;;;;5013929;28;20207;-72
2022/07/21 00:30:49;;;;;;;1.70;1.60;;;;;;;;;;5012658;28;20554;-72
2022/07/21 00:33:17;;;;;;;2.13;2.03;;;;;;;;;;5013406;28;20610;-72
2022/07/21 00:35:44;;;;;;;2.13;1.87;;;;;;;;;;5013321;28;20199;-72
2022/07/21 00:38:11;;;;;;;2.90;2.07;;;;;;;;;;5012794;28;20203;-72
2022/07/21 00:40:37;;;;;;;2.67;2.13;;;;;;;;;;5013000;28;20214;-72
2022/07/21 00:43:04;;;;;;;1.90;1.80;;;;;;;;;;5012544;28;20659;-75
2022/07/21 00:45:31;;;;;;;2.03;1.90;;;;;;;;;;5012833;28;20234;-72
2022/07/21 00:47:58;;;;;;;3.93;2.60;;;;;;;;;;5012788;28;20231;-72
2022/07/21 00:50:26;;;;;;;2.87;2.17;;;;;;;;;;5012563;28;20195;-72
2022/07/21 00:52:53;;;;;;;2.47;2.27;;;;;;;;;;5013305;28;20206;-71
2022/07/21 00:55:22;;;;;;;3.87;2.40;;;;;;;;;;5013594;28;20207;-71
2022/07/21 00:57:49;;;;;;;2.80;2.10;;;;;;;;;;5013504;28;20234;-72
2022/07/21 01:00:18;;;;;;;5.33;1.90;;;;;;;;;;5012239;28;20203;-72
2022/07/21 01:02:45;;;;;;;2.63;2.23;;;;;;;;;;5012378;28;20701;-72
2022/07/21 01:05:14;;;;;;;2.43;2.10;;;;;;;;;;5013812;28;20203;-71
2022/07/21 01:07:45;;;;;;;3.63;2.30;;;;;;;;;;5012348;28;20660;-72
2022/07/21 01:10:12;;;;;;;3.47;2.00;;;;;;;;;;5012271;28;20199;-73
2022/07/21 01:12:39;;;;;;;2.33;2.13;;;;;;;;;;5012846;28;20285;-72
2022/07/21 01:15:07;;;;;;;2.80;2.00;;;;;;;;;;5012498;28;20199;-72
2022/07/21 01:17:35;;;;;;;2.20;2.00;;;;;;;;;;5012475;28;20200;-72
2022/07/21 01:20:05;;;;;;;2.67;2.10;;;;;;;;;;5011857;28;20199;-71
2022/07/21 01:22:34;;;;;;;2.33;2.10;;;;;;;;;;5012828;28;20254;-72
2022/07/21 01:25:01;;;;;;;3.20;2.27;;;;;;;;;;5011666;28;20210;-72
2022/07/21 01:27:28;;;;;;;2.40;2.20;;;;;;;;;;5012815;28;20323;-72
2022/07/21 01:29:55;;;;;;;2.40;2.20;;;;;;;;;;5011790;28;20222;-72
2022/07/21 01:32:22;;;;;;;4.33;2.37;;;;;;;;;;5011994;28;20210;-72
2022/07/21 01:34:50;;;;;;;3.33;2.17;;;;;;;;;;5012111;28;20200;-72
2022/07/21 01:37:17;;;;;;;2.40;2.20;;;;;;;;;;5011924;28;20695;-72
2022/07/21 01:42:29;;;;;;;2.20;2.07;;;;;;;;;;5010821;28;20230;-72
2022/07/21 01:44:57;;;;;;;3.47;2.60;;;;;;;;;;5012141;28;20206;-72
2022/07/21 01:47:24;;;;;;;3.77;2.00;;;;;;;;;;5011258;28;20596;-72
2022/07/21 01:49:50;;;;;;;2.13;1.90;;;;;;;;;;5011678;28;20205;-72
2022/07/21 01:52:17;;;;;;;2.83;1.70;;;;;;;;;;5011665;28;20199;-72
2022/07/21 01:54:45;;;;;;;4.70;2.10;;;;;;;;;;5011498;28;20217;-72
2022/07/21 01:57:12;;;;;;;4.47;2.40;;;;;;;;;;5012202;28;20199;-72
2022/07/21 01:59:39;;;;;;;4.20;1.80;;;;;;;;;;5011659;28;20203;-72
2022/07/21 02:02:06;;;;;;;2.60;2.40;;;;;;;;;;5011323;28;20617;-72
2022/07/21 02:04:34;;;;;;;2.37;2.13;;;;;;;;;;5011572;28;20195;-72
2022/07/21 02:07:01;;;;;;;3.10;2.30;;;;;;;;;;5011334;28;20199;-73
2022/07/21 02:09:28;;;;;;;3.17;2.53;;;;;;;;;;5011466;28;20214;-72
2022/07/21 02:11:56;;;;;;;2.57;2.37;;;;;;;;;;5011628;28;20223;-73
2022/07/21 02:14:23;;;;;;;2.40;2.20;;;;;;;;;;5011096;28;20207;-72
2022/07/21 02:16:50;;;;;;;2.40;2.20;;;;;;;;;;5011634;28;20207;-72
2022/07/21 02:19:16;;;;;;;2.93;2.53;;;;;;;;;;5011061;28;20218;-73
2022/07/21 02:21:43;;;;;;;3.10;2.40;;;;;;;;;;5011696;28;20203;-72
2022/07/21 02:24:10;;;;;;;2.90;2.37;;;;;;;;;;5010857;28;20230;-72
2022/07/21 02:26:37;;;;;;;3.20;2.17;;;;;;;;;;5011320;28;20203;-72
2022/07/21 02:29:05;;;;;;;4.00;1.97;;;;;;;;;;5010699;28;20691;-72
2022/07/21 02:31:32;;;;;;;3.23;2.90;;;;;;;;;;5011191;28;20696;-72
2022/07/21 02:33:59;;;;;;;3.57;1.93;;;;;;;;;;5011099;28;20199;-73
2022/07/21 02:36:25;;;;;;;3.67;2.67;;;;;;;;;;5010909;28;20203;-72
2022/07/21 02:38:52;;;;;;;2.63;2.43;;;;;;;;;;5011038;28;20199;-73
2022/07/21 02:41:19;;;;;;;4.03;2.20;;;;;;;;;;5011085;28;20257;-73
2022/07/21 02:43:45;;;;;;;3.50;2.40;;;;;;;;;;5011413;28;20234;-72
2022/07/21 02:46:14;;;;;;;7.40;2.60;;;;;;;;;;5010608;28;20685;-72
2022/07/21 02:48:40;;;;;;;4.23;2.67;;;;;;;;;;5011425;28;20202;-72
2022/07/21 02:51:07;;;;;;;2.90;2.60;;;;;;;;;;5011033;28;20199;-73
2022/07/21 02:53:34;;;;;;;4.87;2.93;;;;;;;;;;5010866;28;20269;-73
2022/07/21 02:56:01;;;;;;;2.40;2.17;;;;;;;;;;5011147;28;20215;-72
2022/07/21 02:58:29;;;;;;;3.43;2.30;;;;;;;;;;5011617;28;20199;-73
2022/07/21 03:00:58;;;;;;;3.27;2.50;;;;;;;;;;5009473;28;20195;-73
2022/07/21 03:03:27;;;;;;;3.60;2.60;;;;;;;;;;5008810;28;20653;-72
2022/07/21 03:05:54;;;;;;;4.17;2.30;;;;;;;;;;5010977;28;20195;-72
2022/07/21 03:08:21;;;;;;;6.40;2.73;;;;;;;;;;5010405;28;20207;-72
2022/07/21 03:10:48;;;;;;;4.63;2.90;;;;;;;;;;5010926;28;20200;-72
2022/07/21 03:13:15;;;;;;;4.30;2.60;;;;;;;;;;5011096;28;20215;-71
2022/07/21 03:15:42;;;;;;;3.53;2.63;;;;;;;;;;5011263;28;20196;-72
2022/07/21 03:18:09;;;;;;;4.40;2.47;;;;;;;;;;5011116;28;20207;-72
2022/07/21 03:20:38;;;;;;;2.43;2.23;;;;;;;;;;5011351;28;20195;-71
2022/07/21 03:23:06;;;;;;;1.90;1.80;;;;;;;;;;5010189;28;20223;-72
2022/07/21 03:25:33;;;;;;;3.43;2.30;;;;;;;;;;5010909;28;20200;-72
2022/07/21 03:28:00;;;;;;;4.13;2.47;;;;;;;;;;5011350;28;20207;-72
2022/07/21 03:30:28;;;;;;;2.10;2.00;;;;;;;;;;5011064;28;20316;-72
2022/07/21 03:32:55;;;;;;;2.30;2.10;;;;;;;;;;5011492;28;20213;-72
2022/07/21 03:35:22;;;;;;;2.53;2.20;;;;;;;;;;5010333;28;20567;-72
2022/07/21 03:37:52;;;;;;;4.07;2.57;;;;;;;;;;5010547;28;20670;-72
2022/07/21 03:40:24;;;;;;;2.50;2.30;;;;;;;;;;5011390;28;20708;-74
2022/07/21 03:42:51;;;;;;;4.23;2.77;;;;;;;;;;5013851;28;20622;-72
2022/07/21 03:45:18;;;;;;;4.10;2.80;;;;;;;;;;5014186;28;20682;-72
2022/07/21 03:47:45;;;;;;;2.93;2.23;;;;;;;;;;5013933;28;20199;-73
2022/07/21 03:50:12;;;;;;;3.77;2.20;;;;;;;;;;5013479;28;20582;-73
2022/07/21 03:52:40;;;;;;;2.53;2.37;;;;;;;;;;5013783;28;20199;-73
2022/07/21 03:55:09;;;;;;;2.40;2.20;;;;;;;;;;5014489;28;20242;-73
2022/07/21 03:57:37;;;;;;;2.57;2.37;;;;;;;;;;5013432;28;20203;-73
2022/07/21 04:00:07;;;;;;;4.63;2.70;;;;;;;;;;5013787;28;20200;-73
2022/07/21 04:02:34;;;;;;;5.83;2.33;;;;;;;;;;5013312;28;20227;-74
2022/07/21 04:05:01;;;;;;;6.17;2.57;;;;;;;;;;5013703;28;20312;-73
2022/07/21 04:07:27;;;;;;;2.93;2.53;;;;;;;;;;5013439;28;20207;-74
2022/07/21 04:09:54;;;;;;;4.10;2.37;;;;;;;;;;5013780;28;20203;-73
2022/07/21 04:12:26;;;;;;;5.83;2.97;;;;;;;;;;5013308;28;20234;-74
2022/07/21 04:14:53;;;;;;;3.10;2.60;;;;;;;;;;5013837;28;20203;-73
2022/07/21 04:17:19;;;;;;;3.80;2.40;;;;;;;;;;5014113;28;20250;-73
2022/07/21 04:19:46;;;;;;;2.83;2.20;;;;;;;;;;5012867;28;20230;-72
2022/07/21 04:22:13;;;;;;;3.17;2.10;;;;;;;;;;5014139;28;20195;-73
2022/07/21 04:24:40;;;;;;;3.17;2.60;;;;;;;;;;5013817;28;20235;-73
2022/07/21 04:27:07;;;;;;;5.10;2.10;;;;;;;;;;5013936;28;20290;-73
2022/07/21 04:29:35;;;;;;;2.80;2.50;;;;;;;;;;5012416;28;20207;-76
2022/07/21 04:32:02;;;;;;;3.37;2.50;;;;;;;;;;5014029;28;20210;-76
2022/07/21 04:34:29;;;;;;;2.43;2.23;;;;;;;;;;5012958;28;20291;-75
2022/07/21 04:36:56;;;;;;;54.97;9.57;;;;;;;;;;5013225;28;20206;-76
2022/07/21 04:39:24;;;;;;;5.00;2.40;;;;;;;;;;5014245;28;20200;-77
2022/07/21 04:41:50;;;;;;;2.67;2.30;;;;;;;;;;5012491;28;20199;-77
2022/07/21 04:44:17;;;;;;;2.73;1.90;;;;;;;;;;5013415;28;20238;-77
2022/07/21 04:46:45;;;;;;;7.17;2.87;;;;;;;;;;5012257;28;20195;-77
2022/07/21 04:49:12;;;;;;;2.97;2.17;;;;;;;;;;5012917;28;20199;-78
2022/07/21 04:51:39;;;;;;;2.00;1.90;;;;;;;;;;5012546;28;20195;-77
2022/07/21 04:54:06;;;;;;;3.23;2.50;;;;;;;;;;5013767;28;20677;-78
2022/07/21 04:56:34;;;;;;;3.80;2.37;;;;;;;;;;5013875;28;20341;-78
2022/07/21 04:59:01;;;;;;;5.97;2.20;;;;;;;;;;5012324;28;20203;-78
2022/07/21 05:01:27;;;;;;;2.27;2.07;;;;;;;;;;5012571;28;20214;-77
2022/07/21 05:03:55;;;;;;;4.90;2.43;;;;;;;;;;5012168;28;20231;-77
2022/07/21 05:06:23;;;;;;;2.40;2.20;;;;;;;;;;5012253;28;20678;-79
2022/07/21 05:08:50;;;;;;;1.97;1.87;;;;;;;;;;5012162;28;20199;-78
2022/07/21 05:11:17;;;;;;;3.17;2.10;;;;;;;;;;5012517;28;20235;-78
2022/07/21 05:13:43;;;;;;;2.77;2.57;;;;;;;;;;5011951;28;20207;-77
2022/07/21 05:16:10;;;;;;;2.63;2.40;;;;;;;;;;5011912;28;20199;-78
2022/07/21 05:18:37;;;;;;;2.33;2.03;;;;;;;;;;5012159;28;20692;-78
2022/07/21 05:21:06;;;;;;;4.50;2.50;;;;;;;;;;5012120;28;20578;-78
2022/07/21 05:23:33;;;;;;;3.07;2.77;;;;;;;;;;5011856;28;20226;-78
2022/07/21 05:26:00;;;;;;;4.37;2.70;;;;;;;;;;5011944;28;20202;-77
2022/07/21 05:28:28;;;;;;;4.33;2.27;;;;;;;;;;5011742;28;20600;-77
2022/07/21 05:30:56;;;;;;;2.43;2.23;;;;;;;;;;5011946;28;20210;-77
2022/07/21 05:33:23;;;;;;;2.33;2.13;;;;;;;;;;5011872;28;20674;-77
2022/07/21 05:35:50;;;;;;;3.07;2.10;;;;;;;;;;5011868;28;20199;-78
2022/07/21 05:38:18;;;;;;;7.23;3.00;;;;;;;;;;5011847;28;20575;-78
2022/07/21 05:40:45;;;;;;;2.73;2.53;;;;;;;;;;5011892;28;20207;-77
2022/07/21 05:43:11;;;;;;;2.73;2.07;;;;;;;;;;5011632;28;20200;-77
2022/07/21 05:45:38;;;;;;;3.47;2.27;;;;;;;;;;5011608;28;20232;-77
2022/07/21 05:48:06;;;;;;;2.60;2.20;;;;;;;;;;5011959;28;20210;-78
2022/07/21 05:50:33;;;;;;;3.47;1.97;;;;;;;;;;5011441;28;20624;-78
2022/07/21 05:52:59;;;;;;;4.97;2.30;;;;;;;;;;5012257;28;20223;-77
2022/07/21 05:55:27;;;;;;;4.30;2.50;;;;;;;;;;5011607;28;20199;-77
2022/07/21 05:57:54;;;;;;;2.50;2.30;;;;;;;;;;5011567;28;20207;-77
2022/07/21 06:00:21;;;;;;;4.07;2.10;;;;;;;;;;5011343;28;20200;-78
2022/07/21 06:02:50;;;;;;;3.67;2.17;;;;;;;;;;5010794;28;20559;-77
2022/07/21 06:05:17;;;;;;;2.30;2.20;;;;;;;;;;5011293;28;20230;-77
2022/07/21 06:07:44;;;;;;;2.87;2.50;;;;;;;;;;5011458;28;20202;-78
2022/07/21 06:10:10;;;;;;;2.27;1.83;;;;;;;;;;5011976;28;20214;-78
2022/07/21 06:12:39;;;;;;;2.53;2.33;;;;;;;;;;5011130;28;20227;-79
2022/07/21 06:15:07;;;;;;;3.60;2.10;;;;;;;;;;5011118;28;20208;-77
2022/07/21 06:17:39;;;;;;;3.50;2.00;;;;;;;;;;5011084;28;20648;-79
2022/07/21 06:20:08;;;;;;;2.83;2.13;;;;;;;;;;5011399;28;20219;-80
2022/07/21 06:22:34;;;;;;;3.10;2.37;;;;;;;;;;5011448;28;20199;-78
2022/07/21 06:25:01;;;;;;;2.87;2.53;;;;;;;;;;5011272;28;20223;-79
2022/07/21 06:27:28;;;;;;;2.10;1.97;;;;;;;;;;5011113;28;20195;-77
2022/07/21 06:29:58;;;;;;;3.10;2.20;;;;;;;;;;5011035;28;20195;-79
2022/07/21 06:32:25;;;;;;;2.50;2.30;;;;;;;;;;5011064;28;20203;-77
2022/07/21 06:34:52;;;;;;;2.70;2.50;;;;;;;;;;5011077;28;20206;-78
2022/07/21 06:37:19;;;;;;;4.83;2.53;;;;;;;;;;5011333;28;20199;-78
2022/07/21 06:39:46;;;;;;;6.57;2.50;;;;;;;;;;5011132;28;20547;-78
2022/07/21 06:42:12;;;;;;;3.83;3.03;;;;;;;;;;5011076;28;20222;-79
2022/07/21 06:44:39;;;;;;;3.07;2.00;;;;;;;;;;5010856;28;20285;-77
2022/07/21 06:47:08;;;;;;;5.22;2.30;;;;;;;;;;5011082;28;20206;-77
2022/07/21 06:49:35;;;;;;;2.15;1.95;;;;;;;;;;5010991;28;20211;-79
2022/07/21 06:52:02;;;;;;;2.63;2.20;;;;;;;;;;5010853;28;20641;-80
2022/07/21 06:54:29;;;;;;;4.43;2.50;;;;;;;;;;5011076;28;20218;-78
2022/07/21 06:56:57;;;;;;;3.13;2.80;;;;;;;;;;5010801;28;20203;-78
2022/07/21 06:59:24;;;;;;;4.60;2.33;;;;;;;;;;5010522;28;20315;-78
2022/07/21 07:01:51;;;;;;;3.80;2.67;;;;;;;;;;5010749;28;20210;-78
2022/07/21 07:04:19;;;;;;;3.38;2.58;;;;;;;;;;5010591;28;20219;-79
2022/07/21 07:06:50;;;;;;;3.25;2.50;;;;;;;;;;5010863;28;20615;-78
2022/07/21 07:09:16;;;;;;;4.60;2.75;;;;;;;;;;5010425;28;20203;-78
2022/07/21 07:11:43;;;;;;;5.72;2.90;;;;;;;;;;5010309;28;20238;-79
2022/07/21 07:14:10;;;;;;;4.43;2.42;;;;;;;;;;5011740;28;20633;-79
2022/07/21 07:16:37;;;;;;;5.85;2.53;;;;;;;;;;5014491;28;20196;-79
2022/07/21 07:19:03;;;;;;;10.90;2.67;;;;;;;;;;5014564;28;20235;-78
2022/07/21 07:21:35;;;;;;;2.53;2.33;;;;;;;;;;5014631;28;20631;-79
2022/07/21 07:24:02;;;;;;;5.32;2.30;;;;;;;;;;5014091;28;20208;-79
2022/07/21 07:26:29;;;;;;;2.47;2.28;;;;;;;;;;5014258;28;20284;-79
2022/07/21 07:28:55;;;;;;;3.33;2.75;;;;;;;;;;5014292;28;20203;-79
2022/07/21 07:31:22;;;;;;;3.08;2.50;;;;;;;;;;5013926;28;20211;-79
2022/07/21 07:33:49;;;;;;;2.42;2.22;;;;;;;;;;5014679;28;20202;-79
2022/07/21 07:36:16;;;;;;;2.70;2.35;;;;;;;;;;5014241;28;20577;-79
2022/07/21 07:38:47;;;;;;;2.85;2.40;;;;;;;;;;5014096;28;20639;-79
2022/07/21 07:41:14;;;;;;;3.88;2.50;;;;;;;;;;5013833;28;20290;-79
2022/07/21 07:43:41;;;;;;;2.50;2.30;;;;;;;;;;5013579;28;20546;-78
2022/07/21 07:46:10;;;;;;;6.35;2.53;;;;;;;;;;5014012;28;20227;-79
2022/07/21 07:48:37;;;;;;;2.50;2.30;;;;;;;;;;5014110;28;20199;-79
2022/07/21 07:51:04;;;;;;;4.28;2.10;;;;;;;;;;5013735;28;20199;-79
2022/07/21 07:53:31;;;;;;;2.38;2.28;;;;;;;;;;5013500;28;20207;-78
2022/07/21 07:55:59;;;;;;;2.70;2.50;;;;;;;;;;5013450;28;20208;-78
2022/07/21 07:58:26;;;;;;;3.83;1.92;;;;;;;;;;5013951;28;20620;-78
2022/07/21 08:00:53;;;;;;;5.22;2.35;;;;;;;;;;5013680;28;20589;-78
2022/07/21 08:03:20;;;;;;;5.30;2.50;;;;;;;;;;5013359;28;20207;-77
2022/07/21 08:05:47;;;;;;;3.00;2.70;;;;;;;;;;5013813;28;20223;-78
2022/07/21 08:08:14;;;;;;;2.60;2.40;;;;;;;;;;5013275;28;20203;-78
2022/07/21 08:10:41;;;;;;;5.15;2.45;;;;;;;;;;5013489;28;20204;-80
2022/07/21 08:13:09;;;;;;;2.72;2.40;;;;;;;;;;5013781;28;20235;-78
2022/07/21 08:15:36;;;;;;;4.38;2.58;;;;;;;;;;5013537;28;20204;-78
2022/07/21 08:18:04;;;;;;;2.50;2.30;;;;;;;;;;5014091;28;20203;-78
2022/07/21 08:20:31;;;;;;;4.30;2.47;;;;;;;;;;5013292;28;20199;-78
2022/07/21 08:22:58;;;;;;;2.90;2.15;;;;;;;;;;5012911;28;20203;-79
2022/07/21 08:25:25;;;;;;;2.22;2.03;;;;;;;;;;5012345;28;20589;-79
2022/07/21 08:27:52;;;;;;;2.85;2.55;;;;;;;;;;5012626;28;20203;-79
2022/07/21 08:30:20;;;;;;;5.97;2.47;;;;;;;;;;5012771;28;20208;-78
2022/07/21 08:32:47;;;;;;;2.85;2.58;;;;;;;;;;5013288;28;20261;-79
2022/07/21 08:35:13;;;;;;;3.03;1.98;;;;;;;;;;5012620;28;20234;-79
2022/07/21 08:37:41;;;;;;;2.67;2.40;;;;;;;;;;5012916;28;20620;-80
2022/07/21 08:40:11;;;;;;;2.10;2.00;;;;;;;;;;5013004;28;20254;-80
2022/07/21 08:42:38;;;;;;;2.90;2.70;;;;;;;;;;5012843;28;20203;-78
2022/07/21 08:45:06;;;;;;;3.90;2.60;;;;;;;;;;5012578;28;20233;-79
2022/07/21 08:47:36;;;;;;;4.88;2.20;;;;;;;;;;5012710;28;20652;-79
2022/07/21 08:50:03;;;;;;;2.65;2.45;;;;;;;;;;5013029;28;20211;-78
2022/07/21 08:52:30;;;;;;;4.10;2.40;;;;;;;;;;5012944;28;20257;-78
2022/07/21 08:54:57;;;;;;;2.63;2.42;;;;;;;;;;5012908;28;20613;-79
2022/07/21 08:57:24;;;;;;;2.13;2.00;;;;;;;;;;5012547;28;20297;-80
2022/07/21 08:59:51;;;;;;;2.50;2.30;;;;;;;;;;5012572;28;20203;-80
2022/07/21 09:02:28;;;;;;;2.78;2.60;;;;;;;;;;5012258;28;20210;-80
2022/07/21 09:04:56;;;;;;;2.03;1.88;;;;;;;;;;5012495;28;20309;-79
2022/07/21 09:07:23;;;;;;;2.72;2.53;;;;;;;;;;5012203;28;20199;-78
2022/07/21 09:09:57;;;;;;;2.60;2.40;;;;;;;;;;5012813;28;20203;-79
2022/07/21 09:12:24;;;;;;;2.75;2.53;;;;;;;;;;5012432;28;20258;-79
2022/07/21 09:14:51;;;;;;;2.30;2.10;;;;;;;;;;5012187;28;20203;-79
2022/07/21 09:17:19;;;;;;;2.55;2.35;;;;;;;;;;5012241;28;20637;-79
2022/07/21 09:19:48;;;;;;;2.75;2.55;;;;;;;;;;5012121;28;20214;-80
2022/07/21 09:22:18;;;;;;;5.40;2.33;;;;;;;;;;5012042;28;20209;-79
2022/07/21 09:24:50;;;;;;;2.60;2.40;;;;;;;;;;5011906;28;20227;-78
2022/07/21 09:27:19;;;;;;;2.70;2.50;;;;;;;;;;5011881;28;20195;-79
2022/07/21 09:29:47;;;;;;;3.67;2.97;;;;;;;;;;5011895;28;20199;-80
2022/07/21 09:32:19;;;;;;;2.60;2.40;;;;;;;;;;5012203;28;20203;-80
2022/07/21 09:34:46;;;;;;;2.50;2.30;;;;;;;;;;5011953;28;20207;-79
2022/07/21 09:37:13;;;;;;;3.67;2.22;;;;;;;;;;5011745;28;20665;-80
2022/07/21 09:39:47;;;;;;;4.43;2.50;;;;;;;;;;5012280;28;20253;-80
2022/07/21 09:42:16;;;;;;;3.97;2.20;;;;;;;;;;5011410;28;20203;-79
2022/07/21 09:44:47;;;;;;;2.70;2.50;;;;;;;;;;5011697;28;20290;-79
2022/07/21 09:47:17;;;;;;;2.38;2.17;;;;;;;;;;5012007;28;20203;-79
2022/07/21 09:49:44;;;;;;;3.35;2.47;;;;;;;;;;5012061;28;20205;-78
2022/07/21 09:52:29;;;;;;;2.97;2.53;;;;;;;;;;5011484;28;20203;-80
2022/07/21 09:54:58;;;;;;;2.60;2.40;;;;;;;;;;5011944;28;20232;-79
2022/07/21 09:57:26;;;;;;;2.67;2.47;;;;;;;;;;5011281;28;20249;-78
2022/07/21 09:59:53;;;;;;;3.30;2.53;;;;;;;;;;5011709;28;20187;-79
2022/07/21 10:02:22;;;;;;;3.00;2.70;;;;;;;;;;5011156;28;20203;-77
2022/07/21 10:04:58;;;;;;;2.42;2.22;;;;;;;;;;5011193;28;20555;-78
2022/07/21 10:07:25;;;;;;;2.60;2.40;;;;;;;;;;5011297;28;20198;-78
2022/07/21 10:09:52;;;;;;;4.43;2.50;;;;;;;;;;5011597;28;20265;-79
2022/07/21 10:12:20;;;;;;;3.20;2.30;;;;;;;;;;5011392;28;20756;-79
2022/07/21 10:14:47;;;;;;;3.00;2.78;;;;;;;;;;5011746;28;20199;-78
2022/07/21 10:17:14;;;;;;;2.42;2.22;;;;;;;;;;5010838;28;20258;-80
2022/07/21 10:19:49;;;;;;;3.55;2.72;;;;;;;;;;5011216;28;20241;-80
2022/07/21 10:22:24;;;;;;;5.90;2.78;;;;;;;;;;5011414;28;20211;-79
2022/07/21 10:24:51;;;;;;;3.65;2.67;;;;;;;;;;5011075;28;20271;-79
2022/07/21 10:27:17;;;;;;;3.53;2.40;;;;;;;;;;5011266;28;20530;-79
2022/07/21 10:29:58;;;;;;;2.63;2.25;;;;;;;;;;5010692;28;20207;-79
2022/07/21 10:32:31;;;;;;;4.22;2.50;;;;;;;;;;5011009;28;20203;-80
2022/07/21 10:34:59;;;;;;;5.75;2.60;;;;;;;;;;5011186;28;20199;-79
2022/07/21 10:37:49;;;;;;;2.60;2.40;;;;;;;;;;5010979;28;20199;-79
2022/07/21 10:40:41;;;;;;;2.75;2.55;;;;;;;;;;5011422;28;20575;-79
2022/07/21 10:43:43;;;;;;;2.70;2.50;;;;;;;;;;5010903;28;20198;-79
2022/07/21 10:46:37;;;;;;;3.05;2.38;;;;;;;;;;5010704;28;20223;-78
2022/07/21 10:49:06;;;;;;;3.50;2.13;;;;;;;;;;5011388;28;20244;-78
2022/07/21 10:51:34;;;;;;;4.22;2.58;;;;;;;;;;5015460;28;20577;-79
2022/07/21 10:54:25;;;;;;;4.50;2.28;;;;;;;;;;5014781;28;20203;-78
2022/07/21 10:57:26;;;;;;;2.47;2.28;;;;;;;;;;5014679;28;20202;-80
2022/07/21 11:00:23;;;;;;;3.83;2.20;;;;;;;;;;5015020;28;20199;-79
2022/07/21 11:02:53;;;;;;;2.35;2.15;;;;;;;;;;5014960;28;20204;-79
2022/07/21 11:05:20;;;;;;;2.55;2.35;;;;;;;;;;5014402;28;20219;-79
2022/07/21 11:08:09;;;;;;;2.53;2.33;;;;;;;;;;5014414;28;20204;-79
2022/07/21 11:10:37;;;;;;;6.78;2.47;;;;;;;;;;5014694;28;20199;-79
2022/07/21 11:13:03;;;;;;;2.10;1.90;;;;;;;;;;5014287;28;20227;-79
2022/07/21 11:15:47;;;;;;;2.60;2.40;;;;;;;;;;5014471;28;20202;-80
2022/07/21 11:18:19;;;;;;;2.38;2.17;;;;;;;;;;5014295;28;20206;-79
2022/07/21 11:21:07;;;;;;;2.08;1.88;;;;;;;;;;5014686;28;20563;-80
2022/07/21 11:23:52;;;;;;;4.22;2.42;;;;;;;;;;5014856;28;20265;-80
2022/07/21 11:26:20;;;;;;;2.45;2.22;;;;;;;;;;5014463;28;20234;-79
2022/07/21 11:28:47;;;;;;;2.60;2.40;;;;;;;;;;5014177;28;20199;-79
2022/07/21 11:31:16;;;;;;;4.40;2.10;;;;;;;;;;5014090;28;20203;-79
2022/07/21 11:33:47;;;;;;;2.13;1.92;;;;;;;;;;5014066;28;20203;-79
2022/07/21 11:36:25;;;;;;;2.20;2.00;;;;;;;;;;5014565;28;20290;-79
2022/07/21 11:39:02;;;;;;;2.08;1.98;;;;;;;;;;5013847;28;20685;-79
2022/07/21 11:41:28;;;;;;;2.30;2.13;;;;;;;;;;5014502;28;20199;-80
2022/07/21 11:43:55;;;;;;;2.60;2.13;;;;;;;;;;5013657;28;20620;-80
2022/07/21 11:46:22;;;;;;;2.72;2.15;;;;;;;;;;5014097;28;20234;-80
2022/07/21 11:49:01;;;;;;;2.95;2.10;;;;;;;;;;5013708;28;20199;-80
2022/07/21 11:51:28;;;;;;;4.43;2.35;;;;;;;;;;5014136;28;20191;-79
2022/07/21 11:53:55;;;;;;;2.47;2.28;;;;;;;;;;5013698;28;20210;-79
2022/07/21 11:56:22;;;;;;;2.95;2.65;;;;;;;;;;5013619;28;20290;-80
2022/07/21 11:58:49;;;;;;;6.88;2.40;;;;;;;;;;5013705;28;20211;-80
2022/07/21 12:01:16;;;;;;;7.05;2.53;;;;;;;;;;5012254;28;20202;-80
2022/07/21 12:03:51;;;;;;;6.82;2.17;;;;;;;;;;5013934;28;20210;-80
2022/07/21 12:06:18;;;;;;;2.33;2.00;;;;;;;;;;5013518;28;20385;-79
2022/07/21 12:08:45;;;;;;;2.35;2.15;;;;;;;;;;5013422;28;20717;-80
2022/07/21 12:11:13;;;;;;;5.88;2.30;;;;;;;;;;5013495;28;20204;-80
2022/07/21 12:13:55;;;;;;;2.58;2.33;;;;;;;;;;5013590;28;20231;-79
2022/07/21 12:16:23;;;;;;;3.28;2.63;;;;;;;;;;5013363;28;20658;-80
2022/07/21 12:19:10;;;;;;;3.30;2.30;;;;;;;;;;5013069;28;20235;-80
2022/07/21 12:21:45;;;;;;;2.90;2.30;;;;;;;;;;5013253;28;20237;-80
2022/07/21 12:24:12;;;;;;;10.65;2.70;;;;;;;;;;5013063;28;20202;-80
2022/07/21 12:26:39;;;;;;;2.30;2.17;;;;;;;;;;5012798;28;20333;-80
2022/07/21 12:29:05;;;;;;;3.15;2.20;;;;;;;;;;5013337;28;20697;-80
2022/07/21 12:31:34;;;;;;;2.58;2.30;;;;;;;;;;5013123;28;20658;-79
2022/07/21 12:34:11;;;;;;;2.55;2.35;;;;;;;;;;5013137;28;20253;-80
2022/07/21 12:36:38;;;;;;;3.47;2.20;;;;;;;;;;5013137;28;20206;-81
2022/07/21 12:39:55;;;;;;;3.83;2.50;;;;;;;;;;5012968;28;20211;-79
2022/07/21 12:42:08;;;;;;;2.88;2.55;;;;;;;;;;5012793;28;20282;-80
2022/07/21 12:44:36;;;;;;;2.58;2.38;;;;;;;;;;5012698;28;20222;-80
2022/07/21 12:47:16;;;;;;;4.07;2.40;;;;;;;;;;5012826;28;20231;-81
2022/07/21 12:50:03;;;;;;;2.70;2.50;;;;;;;;;;5012533;28;20681;-81
2022/07/21 12:52:31;;;;;;;5.68;2.65;;;;;;;;;;5012987;28;20211;-79
2022/07/21 12:55:00;;;;;;;2.67;2.47;;;;;;;;;;5012493;28;20210;-80
2022/07/21 12:57:28;;;;;;;2.35;2.10;;;;;;;;;;5012720;28;20203;-80
2022/07/21 12:59:56;;;;;;;4.13;2.40;;;;;;;;;;5012552;28;20226;-80
2022/07/21 13:02:22;;;;;;;8.27;2.30;;;;;;;;;;5012430;28;20581;-79
2022/07/21 13:04:49;;;;;;;2.20;2.10;;;;;;;;;;5012396;28;20195;-79
2022/07/21 13:07:17;;;;;;;2.80;2.40;;;;;;;;;;5012240;28;20222;-80
2022/07/21 13:09:45;;;;;;;3.50;2.53;;;;;;;;;;5012426;28;20226;-79
2022/07/21 13:12:17;;;;;;;3.58;2.58;;;;;;;;;;5012021;28;20223;-79
2022/07/21 13:14:44;;;;;;;8.18;3.20;;;;;;;;;;5010589;28;20230;-81
2022/07/21 13:17:11;;;;;;;3.03;2.70;;;;;;;;;;5006496;28;20629;-78
2022/07/21 13:19:38;;;;;;;2.80;2.55;;;;;;;;;;5012995;28;20199;-79
2022/07/21 13:22:05;;;;;;;3.00;2.38;;;;;;;;;;5011780;28;20223;-79
2022/07/21 13:24:33;;;;;;;2.60;2.38;;;;;;;;;;5009729;28;20206;-80
2022/07/21 13:27:00;;;;;;;2.75;2.55;;;;;;;;;;5008987;28;20219;-81
2022/07/21 13:29:31;;;;;;;4.45;2.50;;;;;;;;;;5005072;28;20654;-80
2022/07/21 13:31:57;;;;;;;5.13;2.40;;;;;;;;;;5010122;28;20214;-80
2022/07/21 13:34:24;;;;;;;2.53;2.33;;;;;;;;;;5012764;28;20210;-80
2022/07/21 13:36:51;;;;;;;2.50;2.35;;;;;;;;;;5012670;28;20207;-79
2022/07/21 13:39:18;;;;;;;4.22;2.85;;;;;;;;;;5012706;28;20207;-78
2022/07/21 13:41:46;;;;;;;3.17;2.88;;;;;;;;;;5011719;28;20218;-79
2022/07/21 13:44:13;;;;;;;4.82;2.85;;;;;;;;;;5011287;28;20192;-78
2022/07/21 13:46:39;;;;;;;2.80;2.60;;;;;;;;;;5011887;28;20219;-79
2022/07/21 13:49:06;;;;;;;4.93;2.53;;;;;;;;;;5011845;28;20584;-78
2022/07/21 13:51:33;;;;;;;3.88;2.50;;;;;;;;;;5011639;28;20199;-78
2022/07/21 13:54:00;;;;;;;2.60;2.40;;;;;;;;;;5012096;28;20207;-79
2022/07/21 13:56:27;;;;;;;2.83;2.50;;;;;;;;;;5013409;28;20195;-78
2022/07/21 13:58:55;;;;;;;5.07;2.97;;;;;;;;;;5011057;28;20686;-78
2022/07/21 14:01:22;;;;;;;6.40;2.45;;;;;;;;;;5012304;28;20199;-78
2022/07/21 14:03:51;;;;;;;4.30;2.75;;;;;;;;;;5013624;28;20257;-77
2022/07/21 14:06:18;;;;;;;3.35;2.70;;;;;;;;;;5011582;28;20223;-78
2022/07/21 14:08:45;;;;;;;2.85;2.65;;;;;;;;;;5011871;28;20200;-79
2022/07/21 14:11:13;;;;;;;2.65;2.45;;;;;;;;;;5012471;28;20242;-78
2022/07/21 14:13:40;;;;;;;3.47;2.30;;;;;;;;;;5012662;28;20277;-81
2022/07/21 14:16:09;;;;;;;2.88;2.50;;;;;;;;;;5011732;28;20581;-80
2022/07/21 14:19:11;;;;;;;3.13;2.80;;;;;;;;;;4995576;28;20207;-80
2022/07/21 14:21:38;;;;;;;5.32;2.88;;;;;;;;;;5013174;28;20207;-80
2022/07/21 14:26:50;;;;;;;3.72;2.75;;;;;;;;;;5011820;28;20218;-80
2022/07/21 14:29:19;;;;;;;2.85;2.33;;;;;;;;;;5011958;28;20199;-80
2022/07/21 14:31:49;;;;;;;3.88;2.65;;;;;;;;;;4978731;28;20207;-80
2022/07/21 14:34:16;;;;;;;4.55;3.17;;;;;;;;;;5011455;28;20204;-80
2022/07/21 14:36:43;;;;;;;3.05;2.80;;;;;;;;;;5011805;28;20200;-80
2022/07/21 14:39:10;;;;;;;3.15;2.40;;;;;;;;;;4978232;28;20207;-80
2022/07/21 14:41:37;;;;;;;3.25;3.00;;;;;;;;;;4994079;28;20203;-81
2022/07/21 14:44:05;;;;;;;2.95;2.42;;;;;;;;;;5011746;28;20670;-81
2022/07/21 14:46:32;;;;;;;3.25;2.95;;;;;;;;;;4994200;28;20277;-81
2022/07/21 14:49:01;;;;;;;2.85;2.65;;;;;;;;;;4978471;28;20203;-81
2022/07/21 14:51:27;;;;;;;2.67;2.45;;;;;;;;;;5011578;28;20202;-82
2022/07/21 14:53:55;;;;;;;2.38;2.28;;;;;;;;;;4994083;28;20203;-81
2022/07/21 14:56:22;;;;;;;8.73;2.53;;;;;;;;;;5012051;28;20204;-81
2022/07/21 14:58:49;;;;;;;2.83;2.30;;;;;;;;;;4994119;28;20673;-84